Alexandria, MO

3:10 PM CDT on September 21, 2014 (GMT -0500)
KEOIA | Change Station
CLOSE
Current Station
Personal Weather Station
Location: Keokuk, IA
Elevation: 629 ft
Nearby Weather Stations

Elev 629 ft 40.40 °N, 91.38 °W | Updated 5 seconds ago

Mostly Cloudy
Mostly Cloudy
69.8 °F
Feels Like 69.8 °F
N
1.0
Wind Variable Wind from WNW
Gusts 9.0 mph

Today
High -- | Low -- °F
--% Chance of Precip.
Yesterday
High -- | Low -- °F
Precip. -- in
6:52 AM 7:04 PM
Waning Crescent, 5% visible
Pressure 30.07 in
Visibility 10.0 miles
Clouds Mostly Cloudy 4700 ft
Dew Point 54 °F
Humidity 57%
Rainfall 0.00 in
Snow Depth Not available.
UV 3 out of 12
Pollen 5.70 out of 12
Air Quality Not available.
Flu Activity Not available.
METAR KEOK 211955Z AUTO 33011G17KT 10SM BKN047 20/11 A3007 RMK AO2

More Conditions Fewer Conditions

Pressure 30.07 in
Visibility 10.0 miles
Clouds Mostly Cloudy 4700 ft
Dew Point 54 °F
Humidity 57%
Rainfall 0.00 in
Snow Depth Not available.
UV 3 out of 12
Pollen 5.70 out of 12
Air Quality Not available.
Flu Activity Not available.
METAR KEOK 211955Z AUTO 33011G17KT 10SM BKN047 20/11 A3007 RMK AO2

More Conditions Fewer Conditions

10-Day Weather Forecast

Almanac

Astronomy

Sep. 21, 2014 Rise Set
Actual Time 6:52 AM CDT 7:04 PM CDT
Civil Twilight 6:25 AM CDT 7:31 PM CDT
Nautical Twilight 5:53 AM CDT 8:03 PM CDT
Astronomical Twilight 5:20 AM CDT 8:35 PM CDT
Moon 4:26 AM CDT 5:41 PM CDT
Length of Visible Light 13h 06m
Length of Day
12h 12m
Tomorrow will be 2m 39s shorter.
Waning Crescent, 5% of the Moon is Illuminated
Today
Waning Crescent
Sep 24
New
Oct 1
First Quarter
Oct 8
Full
Oct 15
Last Quarter

Today's Extremes

State Highs State Lows

Community

WunderPhotos

Upload Photos

1,755,243 photos uploaded!

Nearby

Snow Depth

Station Depth Elevation
No new snow has been reported.

Earthquake Activity

City Distance Mag. Time & Date
No recent earthquake activity has been reported nearby.
Minimum magnitude displayed is 2.5.

Coastal Water Temperatures

Place Temperature
No Stations Reporting

Nearby Weather Stations